Thatcham, United Kingdom
Current Conditions -  °F | °C
As of 9:50 PM on Monday 20 Oct 2014 (Local Time) from EGUB Reporting Station
Overcast Overcast  
Wind Chill: 55°   Ceiling: 4500
Heat Index: 55°   Visibility: 6mi
Dew Point: 50°   Wind: 12mph
Humidity: 82%   Direction: 190°S
Pressure: 29.88"   Gusts: NA
Location:  51.4°N, 1.26°W
Report Text: EGUB 202050Z 19010KT 9999 FEW012 SCT025 OVC045 13/10 Q1012 BLU TEMPO SCT012 GRN
Loading
Personal Weather Stations






























Interactive Weather Map
Tropical Storm Tracking
New forecast layout! Learn more

10-Day Weather Forecast

Advertisements
Track Severe Weather on mobile